KVYS/VYS METAR and TAF weather

Enter ICAO airport designator
Station Type Date Time Source
KVYS METAR 2020/02/16 19:55 UTC NOAA

KVYS 161955Z AUTO 00000KT 10SM CLR 03/M02 A3011 RMK AO2 T00251018


Station Type Date Time Source
KVYS Decoded METAR 2020/02/16 19:55 UTC NOAA

Peru, Illinois Valley Regional-Walter A Duncan Field Airport, IL, United States (KVYS) 41-21-07N 089-09-11W
Feb 16, 2020 - 02:55 PM EST / 2020.02.16 1955 UTC
Wind: Calm:0
Visibility: 10 mile(s):0
Sky conditions: clear
Temperature: 36.5 F (2.5 C)
Dew Point: 28.8 F (-1.8 C)
Relative Humidity: 73%
Pressure (altimeter): 30.11 in. Hg (1019 hPa)
ob: KVYS 161955Z AUTO 00000KT 10SM CLR 03/M02 A3011 RMK AO2 T00251018
cycle: 20

Station Type Date Time Source
KVYS TAF UTC NOAA

Error!

Example: see airport list